The University of Tennessee Institute of Agriculture
Tmail  /  Online@UT  /  A-Z Index

Biosystems Engineering & Soil Science


West Tennessee, Cotton farm, Haywood County, daily data

Show English units       Show half-hour records
Date Solar rad
mJ/m2
Precip
(mm)
Air temp
(deg C)
Max Min Avg
Rel humid (%)
Max Min Avg
Avg
windspeed
(m/sec)
Soil temp
6" (deg C)
Max Min Avg
Soil temp
12" (deg C)
Max Min Avg
Evap.
trans.
(mm)
1/1/18 10.7 0-7  -14  -1174  37  572.36  6  60  0  0--
1/2/18 9.9 0-6  -15  -1170  37  541.16  5  60  0  0--
1/3/18 10.2 01  -9  -571  27  521.55  5  50  0  0--
1/4/18Incomplete records (40) were available today.
1/5/18Incomplete records (27) were available today.
1/6/18Incomplete records (21) were available today.
1/7/18 4.1 0.87  -6  168  33  472.04  4  40  0  0--
1/8/18 2.4 14.07  3  5100  70  941.24  4  40  0  0--
1/9/18 2.6 1.09  4  6100  95  991.04  4  40  0  0--
1/10/18 2.4 015  8  12100  89  961.15  4  40  0  00.6
1/11/18 2.2 9.717  14  1699  86  931.47  5  60  0  00.7
1/12/18 3.2 12.213  -8  -397  92  940.78  7  70  0  0--
1/13/18 11.2 0.3-5  -8  -793  62  790.07  7  70  0  0--
1/14/18 9.2 2.0-3  -11  -786  47  700.37  6  60  0  0--
1/15/18 9.7 10.23  -6  -294  55  721.66  6  60  0  0--
1/16/18 10.3 0-3  -15  -1194  54  802.26  5  60  0  0--
1/17/18 10.2 0-8  -17  -1389  59  760.85  5  50  0  0--
1/18/18 12.0 4.32  -14  -791  38  670.95  5  50  0  0--
1/19/18 9.8 07  -5  165  32  491.75  5  50  0  0--
1/20/18 4.7 015  5  1084  37  521.45  5  50  0  0--
1/21/18 8.3 021  12  1583  60  721.76  5  50  0  01.6
1/22/18 10.5 14.218  9  1498  27  582.57  6  60  0  01.9
1/23/18 5.0 09  1  582  47  622.37  7  70  0  0--
1/24/18 12.4 09  -3  296  47  751.27  7  70  0  0--
1/25/18 12.5 017  1  781  24  531.17  7  70  0  0--
1/26/18 11.6 017  1  973  25  481.67  7  70  0  0--
1/27/18 1.0 21.612  11  12100  56  831.17  7  70  0  00.4
1/28/18 12.7 014  6  9100  32  690.08  7  80  0  0--
1/29/18 7.5 05  -1  379  55  660.98  8  80  0  0--
1/30/18 12.1 04  -5  -185  35  620.98  7  70  0  0--
1/31/18 13.1 017  -1  764  27  432.17  7  70  0  0--
2/1/18 1.5 1.510  -1  798  51  710.97  7  70  0  0--
2/2/18 13.5 01  -6  -367  29  471.87  7  70  0  0--
2/3/18 9.0 3.011  -3  381  19  431.37  6  60  0  0--
2/4/18 11.1 20.311  -2  599  62  852.06  6  60  0  0--
2/5/18 13.8 06  -6  -184  43  621.87  6  70  0  0--
2/6/18 3.1 7.95  1  397  53  721.46  6  60  0  0--
2/7/18 5.7 15.72  -2  -098  73  871.96  6  60  0  0--
2/8/18 14.2 09  -5  197  43  740.56  6  60  0  0--
2/9/18 11.3 1.518  0  881  30  551.16  6  60  0  0--
2/10/18 1.7 61.212  5  9100  92  991.27  6  60  0  0--
2/11/18 2.9 2.05  -1  1100  83  941.67  7  70  0  0--
2/12/18 13.9 06  -3  184  56  721.07  7  70  0  0--
2/13/18 10.5 012  -1  584  59  750.97  6  70  0  0--
2/14/18 2.8 10.717  10  1499  87  971.67  6  70  0  00.7
2/15/18 8.1 023  17  2098  60  802.79  7  80  0  01.8
2/16/18 2.2 1.321  5  1293  71  802.410  9  100  0  00.6
2/17/18 2.3 23.19  4  699  77  901.610  10  100  0  0--
2/18/18 12.8 015  -1  8100  41  781.410  9  90  0  0--
2/19/18 11.6 025  12  1894  50  782.19  9  90  0  02.3
2/20/18 12.3 025  19  2277  54  682.511  9  100  0  02.6
2/21/18 2.2 48.822  6  1299  69  912.412  11  110  0  00.6
2/22/18 4.2 27.212  6  9100  88  971.312  11  110  0  0--
2/23/18 6.9 4.621  12  16100  78  951.611  11  110  0  01.4
2/24/18 2.8 29.222  13  18100  78  931.912  11  110  0  00.8
2/25/18 6.8 3.013  8  1094  53  731.312  12  120  0  0--
2/26/18 17.3 018  5  1192  35  650.712  12  120  0  02.5
2/27/18 15.7 021  6  1377  26  511.212  11  120  0  02.6
2/28/18 2.4 93.217  11  14100  54  971.612  11  110  0  00.7
3/1/18 8.4 24.417  10  14100  63  872.012  12  120  0  01.6
3/2/18 18.0 014  5  982  36  611.312  12  120  0  0--
3/3/18 18.5 016  2  972  24  501.012  11  120  0  0--
3/4/18 14.1 019  3  1067  26  481.011  11  110  0  02.1
3/5/18 3.9 25.915  8  1299  59  831.311  11  110  0  00.8
3/6/18 18.8 016  4  1185  20  442.611  11  110  0  03.0
3/7/18 5.7 07  1  472  41  572.411  11  110  0  0--
3/8/18 18.4 07  -1  375  39  570.011  10  100  0  0--
3/9/18 17.1 019  0  983  26  521.210  9  100  0  0--
3/10/18 11.0 2.819  10  1589  36  631.310  9  100  0  02.0
3/11/18 2.1 2.314  3  997  79  890.811  10  100  0  0--
3/12/18 15.4 0.39  1  594  54  742.411  10  110  0  0--
3/13/18 18.9 09  -1  497  38  681.510  10  100  0  0--
3/14/18 20.1 010  -1  578  22  471.210  9  100  0  0--
3/15/18 19.5 021  4  1260  24  411.69  9  90  0  03.4
3/16/18 6.3 4.619  10  1497  46  701.410  9  100  0  01.3
3/17/18 14.8 024  11  1898  35  742.511  10  100  0  02.9
3/18/18 12.5 3.615  7  1094  59  751.411  11  110  0  01.8
3/19/18 9.2 5.321  8  1299  50  882.012  11  120  0  01.6
3/20/18 2.4 012  4  790  80  852.112  12  120  0  0--
3/21/18 16.2 010  0  591  48  681.712  11  110  0  0--
3/22/18 20.5 016  -1  899  33  640.611  10  110  0  0--
3/23/18 8.5 019  6  1275  40  581.411  10  110  0  01.5
3/24/18 5.1 022  13  1794  50  722.511  11  110  0  01.2
3/25/18 6.7 012  6  897  67  841.812  11  120  0  0--
3/26/18 10.3 017  6  1296  70  831.612  11  110  0  01.7
3/27/18 16.2 025  13  1884  47  692.512  11  120  0  03.1
3/28/18 4.2 45.519  16  17100  73  911.013  12  130  0  01.0
3/29/18 6.3 6.920  10  1699  58  882.313  13  130  0  01.3
3/30/18 15.3 015  7  1187  46  711.713  13  130  0  02.3
3/31/18 21.2 023  5  1391  26  581.313  13  130  0  03.4
4/1/18 8.9 2.017  8  1398  45  781.413  13  130  0  01.6
4/2/18 4.8 015  5  995  73  871.313  13  130  0  0--
4/3/18 12.3 5.826  11  2194  49  702.613  13  130  0  02.6
4/4/18 23.0 010  2  676  41  582.413  13  130  0  0--
4/5/18 18.0 017  0  891  28  591.113  12  130  0  0--
4/6/18 4.1 7.614  8  1198  47  850.912  12  120  0  00.8
4/7/18 6.5 08  -1  384  48  702.612  12  120  0  0--
4/8/18 8.5 08  -1  374  48  601.112  11  110  0  0--
4/9/18 23.2 016  2  986  36  561.211  11  110  0  0--
4/10/18 20.5 013  4  984  49  651.511  11  110  0  0--
4/11/18 18.1 021  1  1195  26  591.011  11  110  0  02.7
4/12/18 22.9 028  14  2054  20  382.412  11  110  0  05.2
4/13/18 15.3 026  17  2275  35  573.613  12  120  0  03.2
4/14/18 5.3 49.823  11  17100  57  853.214  13  140  0  01.2
4/15/18 6.3 011  4  675  55  652.914  13  140  0  0--
4/16/18 21.4 011  1  572  47  542.913  12  130  0  0--
4/17/18 23.2 026  3  1590  29  571.812  12  120  0  03.9
4/18/18 18.9 026  16  2173  30  542.813  12  120  0  03.8
4/19/18 19.7 015  5  967  40  512.313  13  130  0  0--
4/20/18 24.8 021  2  1193  23  540.813  13  130  0  03.6
4/21/18 21.9 023  7  1568  30  471.713  13  130  0  03.9
4/22/18 1.8 33.818  13  1499  44  911.414  13  130  0  00.6
4/23/18 4.3 8.615  13  1499  90  970.014  14  140  0  01.0
4/24/18 7.4 0.517  12  14100  80  940.014  14  140  0  01.4
4/25/18 13.3 6.122  11  15100  40  840.414  14  140  0  02.3
4/26/18 7.2 14.718  11  1398  71  921.014  14  140  0  01.4
4/27/18 24.5 022  9  1698  39  701.414  14  140  0  04.2
4/28/18 25.0 022  9  1678  26  521.414  14  140  0  04.3
4/29/18 26.2 020  7  1473  23  451.014  14  140  0  04.5
4/30/18 26.2 025  4  1579  23  451.614  14  140  0  04.8
5/1/18 24.5 028  11  2074  23  462.015  14  140  0  05.0
5/2/18 19.3 029  18  2384  48  672.315  15  150  0  04.0
5/3/18 17.9 028  20  2470  42  592.216  15  160  0  03.8
5/4/18 7.1 7.925  19  2293  60  781.517  16  170  0  01.7
5/5/18 9.1 8.922  16  1999  77  920.417  17  170  0  01.9
5/6/18 24.6 029  13  21100  28  680.717  17  170  0  04.8
5/7/18 25.7 029  15  2286  33  550.717  17  170  0  05.1
5/8/18 24.3 029  12  2194  36  600.718  17  180  0  04.8
5/9/18 16.5 030  18  2475  33  562.018  18  180  0  03.6
5/10/18 19.6 032  20  2569  34  531.618  18  180  0  04.2
5/11/18 25.4 031  20  2670  35  511.919  18  180  0  05.4
5/12/18 22.6 030  19  2579  42  591.719  19  190  0  04.8
5/13/18 24.0 032  19  2683  36  601.219  19  190  0  05.1
5/14/18 25.0 033  20  2787  44  601.220  19  200  0  05.4
5/15/18 24.0 033  20  2794  34  630.920  20  200  0  05.2
5/16/18 16.1 030  19  2491  55  761.221  20  210  0  03.5
5/17/18 12.6 027  17  22100  63  840.521  21  210  0  02.7
5/18/18 18.5 1.528  19  2299  60  850.721  20  200  0  03.8
5/19/18 13.2 13.030  19  2299  55  851.221  20  210  0  02.8
5/20/18 18.6 032  18  2399  52  811.321  20  200  0  03.9
5/21/18 14.5 028  20  2396  65  811.521  20  210  0  03.2
5/22/18 15.5 2.329  20  2499  66  860.621  21  210  0  03.3
5/23/18 22.9 032  19  25100  47  760.321  21  210  0  04.9
5/24/18 21.2 032  19  2698  43  720.321  21  210  0  04.6
5/25/18 14.9 0.531  20  24100  52  811.022  21  210  0  03.3
5/26/18 18.2 031  20  2597  50  791.122  22  220  0  03.9
5/27/18 21.2 032  20  2699  43  730.822  22  220  0  04.6
5/28/18 14.8 6.930  20  2499  56  850.822  22  220  0  03.2
5/29/18 10.2 9.427  21  2398  69  891.022  22  220  0  02.3
5/30/18 24.6 032  22  2798  45  751.722  22  220  0  05.3
5/31/18 16.1 031  24  2787  57  732.222  22  220  0  03.6
6/1/18 11.9 23.629  19  2399  70  871.523  22  220  0  02.6
6/2/18 22.8 033  20  26100  47  780.522  22  220  0  04.9
6/3/18 24.7 029  20  2689  36  641.623  22  220  0  05.3
6/4/18 26.6 029  16  2393  33  600.723  22  230  0  05.4
6/5/18 26.3 030  16  2393  35  610.623  22  220  0  05.3
6/6/18 27.1 033  16  2597  30  600.622  22  220  0  05.6
6/7/18 25.4 033  17  2699  32  620.822  22  220  0  05.4
6/8/18 24.7 034  19  2793  33  620.722  22  220  0  05.4
6/9/18 22.3 0.833  21  2797  38  680.923  22  230  0  04.9
6/10/18 25.9 034  23  2890  41  651.423  23  230  0  05.7
6/11/18 21.8 032  22  2790  51  691.523  23  230  0  04.8
6/12/18 23.4 7.932  21  2797  57  752.123  23  230  0  05.1
6/13/18 19.9 1.832  21  2698  63  831.624  23  230  0  04.3
6/14/18 22.5 033  23  2897  53  781.224  23  230  0  04.9
6/15/18 23.8 034  22  2997  43  690.724  24  240  0  05.3
6/16/18 22.5 034  22  2998  43  690.824  24  240  0  05.0
6/17/18 26.3 034  24  2990  48  701.424  24  240  0  05.8
6/18/18 25.0 034  23  2893  43  661.424  24  240  0  05.5
6/19/18 23.3 031  22  2792  46  671.024  24  240  0  05.1
6/20/18 10.2 2.328  23  2591  68  800.924  24  240  0  02.4
6/21/18 16.6 22.430  21  2499  59  871.524  24  240  0  03.5
6/22/18 25.2 028  20  2496  54  751.924  23  240  0  05.2
6/23/18 19.1 032  21  2699  55  791.224  23  240  0  04.1
6/24/18 19.9 3.332  21  2798  57  781.324  23  240  0  04.4
6/25/18 23.9 033  23  2893  57  731.724  24  240  0  05.2
6/26/18 25.5 4.134  23  2988  50  701.824  24  240  0  05.7
6/27/18 24.9 0.833  20  2797  54  751.824  24  240  0  05.4
6/28/18 25.4 035  25  3090  49  701.724  24  240  0  05.7
6/29/18 23.0 32.331  20  2599  60  811.124  24  240  0  04.9
6/30/18 22.1 034  22  2899  56  780.824  24  240  0  04.9
7/1/18 25.9 034  22  2996  50  721.224  24  240  0  05.7
7/2/18 17.3 2.833  25  2890  60  790.925  24  250  0  03.9
7/3/18 22.9 032  23  2797  55  782.225  24  250  0  05.0
7/4/18 22.7 6.435  22  2899  52  800.725  24  250  0  05.0
7/5/18 26.2 11.735  21  2899  54  781.025  24  250  0  05.7
7/6/18 12.3 10.430  21  2499  70  920.825  24  250  0  02.7
7/7/18 22.0 030  21  2698  59  801.124  24  240  0  04.7
7/8/18 17.8 030  22  2598  63  831.324  24  240  0  03.9
7/9/18 16.2 3.330  22  2599  65  870.924  24  240  0  03.6
7/10/18 21.9 034  21  27100  53  800.424  24  240  0  04.8
7/11/18 26.2 034  23  28100  51  770.424  24  240  0  05.7
7/12/18 26.9 034  22  2898  52  770.524  24  240  0  05.9
7/13/18 26.3 036  23  2999  48  760.624  24  240  0  05.8
7/14/18 23.2 035  25  2998  50  771.025  25  250  0  05.2
7/15/18 21.0 10.934  21  2798  54  821.725  25  250  0  04.6
7/16/18 24.7 14.534  23  2899  55  821.025  25  250  0  05.4
7/17/18 20.5 033  24  2898  56  830.725  25  250  0  04.5
7/18/18 19.9 032  23  2799  58  810.625  25  250  0  04.4
7/19/18 20.7 0.333  22  2797  57  811.325  25  250  0  04.6
7/20/18 21.8 034  23  2895  55  771.425  25  250  0  04.8
7/21/18 26.2 032  25  2888  46  711.525  25  250  0  05.7
7/22/18 24.5 029  20  2596  54  731.225  25  250  0  05.2
7/23/18 17.8 028  19  2395  53  771.225  24  240  0  03.8
7/24/18 24.2 031  18  2596  49  730.824  24  240  0  05.1
7/25/18 24.4 032  20  26100  42  730.424  24  240  0  05.2
7/26/18 22.4 5.333  18  2599  46  760.624  24  240  0  04.8
7/27/18 23.0 6.631  21  2599  43  770.724  24  240  0  04.9
7/28/18 18.8 030  18  2499  54  780.524  23  240  0  04.0
7/29/18 22.0 031  18  2497  49  751.024  23  230  0  04.6
7/30/18 17.1 029  20  2498  64  811.223  23  230  0  03.7
7/31/18 15.7 029  19  2399  56  830.923  23  230  0  03.4
8/1/18 23.5 028  16  22100  55  800.923  23  230  0  04.7
8/2/18 26.2 031  17  24100  44  760.723  23  230  0  05.4
8/3/18 25.8 032  17  25100  43  730.623  23  230  0  05.4
8/4/18 23.6 032  19  2699  51  750.923  23  230  0  05.1
8/5/18 20.3 033  23  2789  52  731.323  23  230  0  04.5
8/6/18 24.4 034  21  2798  46  721.023  23  230  0  05.3
8/7/18 23.2 034  23  2889  43  651.124  23  230  0  05.1
8/8/18 13.9 22.429  21  2599  62  830.924  24  240  0  03.1
8/9/18 15.9 14.728  22  25100  70  860.924  23  240  0  03.5
8/10/18 20.5 0.531  21  2599  60  840.524  23  230  0  04.4
8/11/18 23.2 1.033  20  27100  51  770.823  23  230  0  05.0
8/12/18 23.7 1.332  21  2699  52  780.524  23  240  0  05.1
8/13/18 22.8 032  19  25100  44  770.424  23  240  0  04.9
8/14/18 14.6 031  20  2599  60  830.424  23  230  0  03.2
8/15/18 20.5 0.334  23  2892  47  701.124  23  230  0  04.6
8/16/18 9.1 62.231  21  2598  70  871.324  23  240  0  02.2
8/17/18 17.9 030  20  2597  62  821.324  24  240  0  03.9
8/18/18 20.4 030  21  2598  60  811.024  23  240  0  04.4
8/19/18 16.0 032  21  26100  61  840.624  24  240  0  03.6
8/20/18 13.3 4.629  22  2597  69  861.724  24  240  0  03.0
8/21/18 16.3 028  21  2497  63  811.724  23  240  0  03.5
8/22/18 19.2 028  19  2298  60  810.924  23  230  0  04.0
8/23/18 21.8 027  15  2197  45  740.523  23  230  0  04.3
8/24/18 18.3 031  17  2396  46  731.323  23  230  0  03.8
8/25/18 22.3 033  21  2790  50  701.423  22  230  0  04.9
8/26/18 20.7 033  23  2891  54  731.323  23  230  0  04.6
8/27/18 20.7 033  22  2793  51  731.523  23  230  0  04.6
8/28/18 20.7 035  23  2888  46  701.423  23  230  0  04.6
8/29/18 17.6 1.833  22  2696  54  791.424  23  230  0  03.9
8/30/18 17.2 0.332  21  2599  55  830.724  23  240  0  03.8
8/31/18 20.3 031  20  2598  62  801.424  24  240  0  04.3
9/1/18 21.1 031  19  2599  57  781.724  24  240  0  04.5
9/2/18 21.7 033  20  2798  51  741.824  24  240  0  04.7
9/3/18 21.4 032  21  2795  52  741.924  24  240  0  04.7
9/4/18 21.9 033  21  2694  47  721.724  24  240  0  04.7
9/5/18 16.3 030  20  2597  52  761.824  24  240  0  03.6
9/6/18 16.9 031  23  2698  59  812.124  24  240  0  03.7
9/7/18 16.8 031  21  2599  59  861.324  24  240  0  03.7
9/8/18 13.2 50.831  22  2599  59  881.325  24  240  0  03.0
9/9/18 4.6 15.022  18  1999  84  951.224  24  240  0  01.2
9/10/18 10.8 023  16  1994  63  811.024  23  240  0  02.2
9/11/18 11.6 024  14  19100  59  840.623  23  230  0  02.4
9/12/18 14.1 026  18  2195  61  810.623  22  230  0  02.9
9/13/18 18.3 033  18  2597  53  780.623  22  220  0  03.9
9/14/18 19.5 033  21  2799  45  740.623  22  230  0  04.3
9/15/18 19.8 033  20  2795  46  720.923  23  230  0  04.4
9/16/18 20.7 033  21  2797  45  730.723  23  230  0  04.5
9/17/18 17.5 033  19  25100  45  760.523  23  230  0  03.8
9/18/18 20.8 034  19  26100  40  720.623  23  230  0  04.5
9/19/18 20.2 035  20  2798  42  720.523  23  230  0  04.5
9/20/18 18.6 034  21  2798  41  701.024  23  240  0  04.1
9/21/18 15.1 8.634  23  2787  45  711.324  24  240  0  03.4
9/22/18 4.1 40.922  18  2099  91  971.124  24  240  0  01.1
9/23/18 2.7 21.622  18  2099  98  990.824  23  230  0  00.8
9/24/18 7.1 42.727  21  2399  79  951.923  23  230  0  01.7
9/25/18Incomplete records (33) were available today.
9/26/18Incomplete records (31) were available today.
9/27/18 5.2 22.619  14  1698  71  851.123  22  230  0  01.2
9/28/18 18.5 025  11  18100  55  830.422  22  220  0  03.5
9/29/18 17.3 027  14  19100  50  820.622  21  220  0  03.4
9/30/18 18.7 030  14  21100  43  770.622  21  210  0  03.8
10/1/18 11.3 030  17  23100  43  820.621  21  210  0  02.5
10/2/18 13.2 9.132  21  2599  54  830.822  21  220  0  03.0
10/3/18 16.3 031  20  2599  54  791.322  22  220  0  03.6
10/4/18 15.8 032  22  2791  48  731.222  22  220  0  03.5
10/5/18 16.5 032  22  2792  48  711.223  22  220  0  03.7
10/6/18 15.8 031  21  2691  46  721.223  23  230  0  03.5
10/7/18 17.0 032  19  2594  44  711.723  23  230  0  03.7
10/8/18 16.3 031  19  2594  48  732.423  23  230  0  03.6
10/9/18 15.8 030  21  2590  53  733.423  23  230  0  03.5
10/10/18 12.5 5.127  20  2498  62  801.923  23  230  0  02.8
10/11/18 16.8 020  11  1590  46  701.723  22  230  0  02.9
10/12/18 10.6 017  7  1292  46  730.622  21  220  0  01.7
10/13/18 4.9 0.814  11  1293  69  821.121  21  210  0  01.0
10/14/18 1.8 12.721  11  1699  94  980.920  20  200  0  00.6
10/15/18 2.6 77.218  8  14100  89  961.620  19  200  0  00.7
10/16/18 3.9 1.010  7  896  76  881.220  19  190  0  0--
10/17/18 16.1 0.321  5  13100  38  740.719  18  190  0  02.6
10/18/18 15.0 018  9  1279  33  591.018  18  180  0  02.4
10/19/18 12.3 4.822  5  1398  31  720.818  18  180  0  02.1
10/20/18 12.8 7.619  12  1499  38  791.518  18  180  0  02.2
10/21/18 16.7 015  2  890  31  531.218  17  180  0  0--
10/22/18 14.9 020  1  999  31  710.717  17  170  0  0--
10/23/18 14.2 022  5  12100  36  750.416  16  160  0  02.3
10/24/18 14.6 019  5  1289  37  631.016  16  160  0  02.3
10/25/18 4.0 4.314  9  1198  66  851.816  16  160  0  00.8
10/26/18 2.5 4.613  10  11100  83  941.916  16  160  0  00.6
10/27/18 13.0 018  8  1296  53  801.416  16  160  0  02.1
10/28/18 14.0 024  10  1695  37  721.716  16  160  0  02.6
10/29/18 14.6 021  5  1392  26  551.216  16  160  0  02.4
10/30/18 13.5 026  11  1876  36  612.116  16  160  0  02.6
10/31/18 7.6 10.424  17  2097  65  792.316  16  160  0  01.7
11/1/18 2.7 16.020  7  1498  85  932.617  16  170  0  00.7
11/2/18 8.5 3.313  5  899  56  871.117  16  170  0  0--
11/3/18 11.6 0.317  3  10100  48  801.816  16  160  0  0--
11/4/18 3.3 3.614  11  1394  71  853.316  16  160  0  00.8
11/5/18 5.8 36.119  8  14100  70  912.416  15  160  0  01.2
11/6/18 13.7 0.821  10  15100  24  740.916  15  150  0  02.4
11/7/18 6.0 4.316  10  1292  60  771.016  15  160  0  01.1
11/8/18 11.0 015  7  1079  40  631.416  15  150  0  0--
11/9/18 5.0 9.110  3  698  64  821.715  15  150  0  0--
11/10/18 13.5 05  -2  184  40  621.515  14  140  0  0--
11/11/18 10.8 011  -4  383  32  600.714  13  140  0  0--
11/12/18 1.2 10.98  3  699  64  861.113  13  130  0  0--
11/13/18 2.5 4.63  -2  096  77  870.013  12  130  0  0--
11/14/18 1.5 0-1  -3  -298  76  851.412  12  120  0  0--
11/15/18 3.5 0.32  -2  -198  78  901.612  11  110  0  0--
11/16/18 10.8 0.315  -1  588  43  711.111  11  110  0  0--
11/17/18 12.6 020  2  1098  34  701.111  11  110  0  0--
11/18/18 9.3 017  6  1088  56  741.111  11  110  0  01.4
11/19/18 3.9 09  6  898  73  861.611  11  110  0  0--
11/20/18 7.6 08  0  598  66  801.111  11  110  0  0--
11/21/18 11.8 013  -4  398  44  780.511  11  110  0  0--
11/22/18 11.8 016  -1  799  38  710.711  11  110  0  0--
11/23/18 3.5 10.712  4  895  61  763.411  11  110  0  0--
11/24/18 10.8 019  10  1397  49  801.211  11  110  0  01.9
11/25/18 5.1 0.817  7  1296  53  783.811  11  110  0  01.0
11/26/18 3.2 05  -1  272  59  662.911  11  110  0  0--
11/27/18 10.5 01  -5  -288  54  710.011  10  110  0  0--
11/28/18 10.3 08  -7  195  45  721.410  10  100  0  0--
11/29/18 3.2 015  5  1195  60  742.610  10  100  0  00.7
11/30/18 4.8 12.221  17  1898  77  891.910  10  100  0  01.2
12/1/18 5.2 16.321  16  1897  39  813.613  11  120  0  01.2
12/2/18 10.5 016  8  1368  37  522.112  12  120  0  01.8
12/3/18 5.3 07  1  488  62  721.712  12  120  0  0--
12/4/18 3.6 04  0  380  55  670.112  11  120  0  0--
12/5/18 10.9 06  -3  182  51  671.211  11  110  0  0--
12/6/18 2.5 05  -3  288  56  750.911  10  100  0  0--
12/7/18 1.2 1.34  3  398  89  950.010  10  100  0  0--
12/8/18 0.9 19.63  0  197  94  960.010  8  90  0  0--
12/9/18 3.5 19.81  -1  -097  89  950.08  7  70  0  0--
12/10/18 8.3 04  -3  -095  65  841.28  7  70  0  0--
12/11/18 10.7 010  -5  197  40  721.28  8  80  0  0--
12/12/18 2.8 011  4  878  43  530.98  8  80  0  0--
12/13/18 3.3 4.315  8  1194  65  803.79  8  80  0  00.7
12/14/18 1.4 8.411  10  1099  91  961.79  9  90  0  00.4
12/15/18 2.1 14.710  7  9100  95  981.210  9  90  0  0--
12/16/18 9.1 014  4  895  55  810.510  10  100  0  0--
12/17/18 10.7 014  -1  7100  40  770.610  10  100  0  0--
12/18/18 10.2 014  1  696  31  690.510  9  100  0  0--
12/19/18 6.5 015  2  880  55  691.39  9  90  0  0--
12/20/18 2.7 7.19  6  899  80  931.810  9  90  0  0--
12/21/18 1.4 2.06  0  394  74  860.110  10  100  0  0--
12/22/18 8.7 013  -3  498  38  761.010  9  90  0  0--
12/23/18 5.3 0.38  0  694  62  771.49  9  90  0  0--
12/24/18 10.0 010  -3  399  31  711.29  9  90  0  0--
12/25/18 9.3 1.313  4  796  57  740.79  9  90  0  0--
12/26/18 2.2 1.512  6  996  74  882.49  9  90  0  0--
12/27/18 0.9 16.015  11  1398  68  815.010  9  90  0  00.4
12/28/18 8.4 014  3  1097  61  821.910  10  100  0  0--
12/29/18 8.3 05  -2  290  62  770.310  10  100  0  0--
12/30/18 5.5 4.111  1  696  52  760.510  9  90  0  0--
12/31/18 1.4 53.320  8  13100  83  942.710  9  90  0  00.5
1/1/19 3.4 010  4  798  75  880.910  10  100  0  0--
1/2/19 1.2 8.46  3  497  86  900.010  9  100  0  0--
1/3/19 3.6 0.36  3  597  81  900.010  9  100  0  0--
1/4/19 1.9 10.78  4  699  86  940.010  9  100  0  0--
1/5/19 11.0 015  3  795  50  780.69  9  90  0  0--
1/6/19 9.7 019  5  1192  36  681.19  9  90  0  01.5
1/7/19 3.3 0.516  10  1486  59  732.410  9  90  0  00.8
1/8/19 9.8 019  9  1593  31  682.310  10  100  0  01.8
1/9/19 11.7 09  1  563  37  462.210  10  100  0  0--
1/10/19 11.3 04  -3  071  45  600.410  9  100  0  0--
1/11/19 3.3 4.14  -3  -091  53  700.79  9  90  0  0--
1/12/19 1.2 13.58  2  699  70  861.89  8  90  0  0--
1/13/19 1.2 0.38  2  499  86  930.59  8  90  0  0--
1/14/19 2.6 02  1  196  82  880.09  8  90  0  0--
1/15/19 4.4 06  1  392  65  810.08  8  80  0  0--
1/16/19 9.1 011  -1  597  58  810.68  8  80  0  0--
1/17/19 1.5 17.810  7  999  71  931.58  8  80  0  0--
1/18/19 4.6 0.310  3  799  82  931.49  8  90  0  0--
1/19/19 1.9 43.214  -2  899  90  962.79  9  90  0  0--
1/20/19 8.1 0.3-2  -5  -396  66  762.29  9  90  0  0--
1/21/19 11.8 03  -6  -286  50  692.59  8  80  0  0--
1/22/19 3.8 011  0  572  49  595.38  7  80  0  0--
1/23/19 0.9 24.912  0  799  79  912.98  7  70  0  0--
1/24/19 12.6 05  -4  084  59  720.48  8  80  0  0--
1/25/19 12.7 02  -4  -279  41  661.28  7  70  0  0--
1/26/19 12.5 010  -3  393  43  721.17  7  70  0  0--
1/27/19 12.0 012  2  694  39  690.57  7  70  0  0--
1/28/19 7.7 0.314  1  790  37  651.97  7  70  0  0--
1/29/19 13.6 02  -7  -365  30  502.37  7  70  0  0--
1/30/19 10.3 0-2  -7  -575  28  461.97  6  70  0  0--
1/31/19 10.9 06  -9  -265  34  501.66  6  60  0  0--
2/1/19 3.9 0.510  4  788  48  681.16  6  60  0  0--
2/2/19 11.5 020  4  1195  34  670.96  6  60  0  01.7
2/3/19 12.6 022  5  1494  42  701.77  6  70  0  02.2
2/4/19 3.4 0.319  13  1698  75  872.88  7  80  0  00.9
2/5/19 3.5 2.322  14  17100  75  941.69  8  90  0  00.9
2/6/19 2.7 102.422  15  19100  81  931.911  9  100  0  00.8
2/7/19 2.0 16.522  3  15100  68  873.612  11  110  0  00.6
2/8/19 12.4 02  -5  -277  49  642.612  11  110  0  0--
2/9/19 13.1 04  -6  -174  44  591.711  9  100  0  0--
2/10/19 1.2 26.96  1  499  51  870.59  9  90  0  0--
2/11/19 1.4 39.415  6  10100  97  991.39  9  90  0  0--
2/12/19 8.6 29.215  5  1099  48  822.510  9  90  0  01.4
2/13/19 14.5 013  0  681  32  541.310  9  100  0  0--
2/14/19 8.0 016  7  1172  41  553.29  9  90  0  01.3
2/15/19 2.5 8.612  1  697  73  860.89  9  90  0  0--
2/16/19 5.8 1.83  -1  197  77  870.89  9  90  0  0--
2/17/19 3.4 6.17  3  599  78  900.89  9  90  0  0--
2/18/19 13.4 04  -1  178  56  680.49  8  90  0  0--
2/19/19 2.0 18.83  -1  198  63  800.08  8  80  0  0--
2/20/19 2.5 33.510  4  6100  87  970.98  8  80  0  0--
2/21/19 5.0 6.68  -1  4100  80  950.88  8  80  0  0--
2/22/19 1.3 27.211  6  8100  91  981.08  8  80  0  0--
2/23/19 1.7 85.618  11  15100  65  973.49  8  80  0  00.6
2/24/19 17.5 017  4  970  33  513.29  9  90  0  0--
2/25/19 15.7 012  1  670  30  490.89  9  90  0  0--
2/26/19 16.7 018  2  972  27  491.29  9  90  0  0--
2/27/19 10.0 020  7  1384  42  610.99  9  90  0  01.7
2/28/19 3.9 0.314  2  697  66  811.49  9  90  0  0--
3/1/19 3.4 03  1  297  82  910.09  9  90  0  0--
3/2/19 2.9 06  3  490  75  830.09  9  90  0  0--
3/3/19 2.3 12.45  -2  298  74  880.09  9  90  0  0--
3/4/19 17.4 0-2  -8  -576  45  600.19  8  80  0  0--
3/5/19 19.4 01  -7  -382  34  521.28  7  80  0  0--
3/6/19 18.1 04  -6  -168  33  501.07  7  70  0  0--
3/7/19 4.6 08  -4  277  39  582.37  6  70  0  0--
3/8/19 2.2 4.311  5  8100  63  950.77  6  70  0  0--
3/9/19 2.8 17.019  10  15100  76  922.98  7  70  0  00.8
3/10/19 17.4 016  7  1285  51  661.59  8  80  0  02.6
3/11/19 12.4 0.816  7  1191  51  661.39  9  90  0  01.9
3/12/19 11.3 017  6  1175  39  591.49  9  90  0  01.8
3/13/19 8.7 4.622  11  1784  56  655.010  9  90  0  01.8
3/14/19 15.4 51.824  14  2099  32  674.011  10  100  0  03.1
3/15/19 14.5 013  6  966  36  542.611  11  110  0  0--
3/16/19 21.1 013  1  782  29  501.211  11  110  0  0--
3/17/19 20.7 016  1  893  29  561.211  10  100  0  0--
3/18/19 20.6 013  3  874  28  471.310  10  100  0  0--
3/19/19 20.9 015  -1  888  24  461.110  10  100  0  0--
3/20/19 13.5 2.317  3  996  23  551.610  10  100  0  0--
3/21/19 19.5 013  4  899  50  771.710  10  100  0  0--
3/22/19 21.4 018  2  1097  28  621.210  10  100  0  0--
3/23/19 20.4 021  4  1278  24  491.810  10  100  0  03.2
3/24/19 14.5 4.623  10  1691  35  541.910  10  100  0  02.6
3/25/19 6.3 0.818  9  1490  54  802.211  10  110  0  01.2
3/26/19 22.0 013  5  1086  27  542.011  11  110  0  0--
3/27/19 22.2 018  -1  982  18  421.011  11  110  0  0--
3/28/19 19.8 024  6  1568  26  431.511  11  110  0  03.7
3/29/19 13.7 022  14  1871  41  542.011  11  110  0  02.7
3/30/19 6.6 8.621  6  1594  56  742.812  11  120  0  01.3
3/31/19 23.0 010  2  678  36  572.312  12  120  0  0--
4/1/19 22.0 013  -1  672  25  491.112  11  110  0  0--
4/2/19 23.0 018  2  1082  27  491.311  11  110  0  03.2
4/3/19 21.8 023  8  1562  22  391.511  11  110  0  04.3
4/4/19 2.5 18.316  11  1398  38  742.511  11  110  0  00.7
4/5/19 10.5 0.819  12  14100  64  870.812  11  110  0  01.9
4/6/19 20.8 2.826  10  18100  38  731.412  12  120  0  03.8
4/7/19 4.8 46.021  16  1899  80  922.113  12  130  0  01.2
4/8/19 7.3 5.822  16  18100  73  910.913  13  130  0  01.6
4/9/19 23.2 026  13  20100  37  721.014  13  140  0  04.4
4/10/19 22.9 030  11  2181  26  482.114  14  140  0  04.7
4/11/19 19.1 029  19  2466  28  473.114  14  140  0  04.2
4/12/19 15.4 12.424  10  1598  40  681.415  14  150  0  02.7
4/13/19 2.4 51.315  12  13100  71  881.215  14  150  0  00.7
4/14/19 5.4 5.318  5  12100  73  882.914  14  140  0  01.0
4/15/19 23.3 021  3  12100  34  691.014  14  140  0  03.5
4/16/19 22.6 025  10  1878  31  532.014  14  140  0  04.2
4/17/19 13.3 024  16  1978  52  642.214  14  140  0  02.7
4/18/19 4.3 10.720  15  1798  78  892.114  14  140  0  01.1
4/19/19 4.5 16.012  7  898  86  932.915  14  150  0  0--
4/20/19 25.1 020  7  1295  21  462.714  14  140  0  04.1
4/21/19 24.6 027  8  1780  28  521.014  13  140  0  04.4
4/22/19 24.2 027  12  2082  33  541.214  13  140  0  04.6
4/23/19 14.8 026  15  2074  48  621.014  14  140  0  03.0
4/24/19 19.2 027  15  2186  43  651.315  14  140  0  03.9
4/25/19 5.6 2.821  16  1994  59  812.115  15  150  0  01.3
4/26/19 24.8 022  12  1797  29  612.115  15  150  0  04.4
4/27/19 15.2 025  9  1791  25  571.615  15  150  0  02.9
4/28/19 24.8 023  12  1872  39  581.515  15  150  0  04.5
4/29/19 20.1 028  15  2185  44  652.215  15  150  0  04.0
4/30/19 18.0 029  18  2383  49  662.416  15  160  0  03.8
5/1/19 10.1 025  18  2290  62  722.016  16  160  0  02.3
5/2/19 17.3 1.028  19  2391  46  672.117  16  170  0  03.7
5/3/19 10.0 2.324  18  2098  65  851.217  17  170  0  02.2
5/4/19 6.6 4.821  15  1998  77  931.117  17  170  0  01.5
5/5/19 17.2 024  15  1897  46  771.117  17  170  0  03.2
5/6/19 22.1 027  12  1999  38  691.017  17  170  0  04.2
5/7/19 23.8 030  14  2296  42  661.417  17  170  0  04.8
5/8/19 21.6 031  18  2488  37  623.117  17  170  0  04.5
5/9/19 8.1 19.825  17  2098  56  862.118  17  180  0  01.8
5/10/19 6.3 2.019  13  1697  77  911.418  18  180  0  01.3
5/11/19 4.9 0.518  12  1595  87  921.218  17  170  0  01.1
5/12/19 13.4 019  12  1595  61  801.417  17  170  0  02.4
5/13/19 20.7 3.620  11  1599  50  761.117  17  170  0  03.6
5/14/19 26.2 024  8  1699  39  670.817  16  170  0  04.5
5/15/19 14.0 2.826  13  1894  65  801.717  16  170  0  02.7
5/16/19 23.6 031  16  2499  46  731.317  16  170  0  04.9
5/17/19 23.4 031  19  2585  43  631.317  17  170  0  05.0
5/18/19 25.2 6.430  19  2585  41  622.418  17  180  0  05.3
5/19/19 15.5 7.928  17  2298  57  822.318  18  180  0  03.3
5/20/19 26.1 030  16  2397  45  690.919  18  180  0  05.3
5/21/19 23.3 031  21  2686  49  663.219  18  190  0  05.0
5/22/19 16.2 1.531  19  2596  56  761.919  19  190  0  03.6
5/23/19 24.1 032  22  2888  44  661.720  19  190  0  05.3
5/24/19 20.4 032  20  2689  48  671.420  20  200  0  04.5
5/25/19 24.8 033  21  2790  41  641.320  20  200  0  05.4
5/26/19 25.6 033  21  2781  27  581.320  20  200  0  05.5
5/27/19 21.5 033  22  2784  42  621.320  20  200  0  04.7
5/28/19 22.8 032  22  2787  48  672.021  20  210  0  05.0
5/29/19 19.8 7.132  23  2782  52  692.021  21  210  0  04.4
5/30/19 14.9 0.327  20  2394  60  771.721  21  210  0  03.2
5/31/19Incomplete records (40) were available today.
6/1/19 24.2 030  17  2497  36  661.021  21  210  0  05.0
6/2/19 23.8 031  19  2682  39  611.421  21  210  0  05.1
6/3/19 21.5 029  18  2489  33  601.021  21  210  0  04.5
6/4/19 18.1 1.529  19  2387  55  712.021  21  210  0  03.8
6/5/19 22.6 032  22  2795  49  731.721  21  210  0  04.9
6/6/19 4.2 9.124  21  2297  80  921.521  21  210  0  01.2
6/7/19 14.4 21.327  21  2398  67  871.221  21  210  0  03.1
6/8/19 17.1 028  21  2493  64  831.321  21  210  0  03.7
6/9/19 14.2 2.529  21  2497  65  851.021  21  210  0  03.1
6/10/19 26.0 027  18  2497  34  651.621  21  210  0  05.3
6/11/19 22.4 026  14  2081  35  570.821  21  210  0  04.3
6/12/19 20.2 025  14  2093  37  611.021  21  210  0  04.0
6/13/19 27.0 026  14  2095  29  651.521  20  200  0  05.1
6/14/19 25.2 027  10  2096  36  611.620  20  200  0  04.8
6/15/19 19.3 030  18  2578  53  662.220  20  200  0  04.1
6/16/19 18.8 030  23  2686  62  742.120  20  200  0  04.1
6/17/19 14.2 4.129  21  2595  55  751.821  20  210  0  03.2
6/18/19 17.5 24.931  20  2498  55  851.221  21  210  0  03.8
6/19/19 21.8 032  22  2797  54  751.421  21  210  0  04.8
6/20/19 21.5 24.130  20  2596  54  781.722  21  210  0  04.6
6/21/19 19.9 5.633  20  2697  60  821.922  22  220  0  04.3
6/22/19 18.7 3.833  20  2594  59  792.022  22  220  0  04.0
6/23/19 18.7 7.431  21  2594  60  782.122  22  220  0  04.0
6/24/19 22.2 16.528  20  2398  56  801.622  22  220  0  04.6
6/25/19 23.8 031  20  2598  52  770.922  22  220  0  05.1
6/26/19 23.9 2.032  21  2695  59  761.422  22  220  0  05.1
6/27/19 11.0 0.525  20  2298  66  850.722  22  220  0  02.4
6/28/19 26.5 031  19  2499  52  780.922  22  220  0  05.5
6/29/19 25.1 033  20  2699  50  770.822  22  220  0  05.3
6/30/19 25.7 033  21  2797  48  750.722  22  220  0  05.5
7/1/19 24.1 033  23  2896  54  760.823  22  230  0  05.3
7/2/19 23.0 4.332  22  2798  52  751.123  23  230  0  05.0
7/3/19 22.1 033  22  2797  52  791.123  23  230  0  04.8
7/4/19 22.5 032  24  2896  54  781.323  23  230  0  05.0
7/5/19 22.3 9.933  22  2798  48  791.423  23  230  0  04.8
7/6/19 20.2 030  21  2599  62  831.423  23  230  0  04.4
7/7/19 19.1 033  22  2793  56  781.023  23  230  0  04.2
7/8/19 24.9 034  23  2898  48  770.823  23  230  0  05.5
7/9/19 20.4 035  23  2898  51  790.624  23  230  0  04.6
7/10/19 17.8 6.635  23  2797  53  851.024  24  240  0  03.9
7/11/19 22.2 032  22  2699  57  810.724  24  240  0  04.8
7/12/19 24.6 032  21  2796  56  750.824  24  240  0  05.3
7/13/19 20.6 6.933  23  2697  60  831.224  24  240  0  04.5
7/14/19 6.8 5.826  21  2497  81  911.324  24  240  0  01.7
7/15/19 6.9 33.825  21  2398  86  943.024  23  240  0  01.7
7/16/19 8.1 41.427  22  2498  75  921.924  23  230  0  01.9
7/17/19 18.0 033  23  2795  66  841.423  23  230  0  04.0
7/18/19 15.1 8.933  23  2898  62  841.223  23  230  0  03.5
7/19/19 22.5 0.534  25  2995  59  781.224  23  240  0  05.0
7/20/19 24.5 034  24  2997  53  771.224  24  240  0  05.4
7/21/19 16.1 031  23  2697  66  851.424  24  240  0  03.6
7/22/19 9.9 6.630  22  2598  74  901.424  24  240  0  02.3
7/23/19 25.9 026  18  2294  51  711.624  24  240  0  05.2
7/24/19 25.8 028  16  2297  39  710.924  23  240  0  05.1
7/25/19 26.1 030  14  2299  41  710.523  23  230  0  05.2
7/26/19 23.9 031  16  24100  43  760.623  22  230  0  04.9
7/27/19 23.9 032  18  26100  42  720.723  22  220  0  05.1
7/28/19 24.2 032  20  2697  45  721.123  22  230  0  05.2
7/29/19 17.5 20.831  21  2599  56  791.523  23  230  0  03.8
7/30/19 11.8 0.329  21  2499  70  900.723  23  230  0  02.6
7/31/19 25.2 030  20  2599  47  770.623  23  230  0  05.3
8/1/19 24.1 030  19  2498  47  770.723  23  230  0  05.0
8/2/19 24.2 030  18  2498  57  790.823  23  230  0  05.0
8/3/19 21.9 033  20  2698  51  760.723  23  230  0  04.7
8/4/19 22.1 6.633  21  2698  54  810.923  23  230  0  04.7
8/5/19 22.6 0.332  20  24100  55  840.723  23  230  0  04.8
8/6/19 21.8 033  21  2799  59  791.123  23  230  0  04.8
8/7/19 11.5 14.531  21  2499  71  891.623  23  230  0  02.6
8/8/19 14.5 0.329  19  24100  72  910.723  23  230  0  03.2
8/9/19 14.5 1.530  23  2699  68  880.723  23  230  0  03.3
8/10/19 19.8 032  23  27100  60  830.523  23  230  0  04.4
8/11/19 21.1 033  22  27100  55  810.423  23  230  0  04.6
8/12/19 21.9 035  23  2998  57  790.923  23  230  0  04.9
8/13/19 21.1 0.835  26  3094  59  781.224  23  240  0  04.8
8/14/19 22.9 21.832  22  26100  51  790.824  24  240  0  05.0
8/15/19 23.7 031  21  2698  48  760.824  24  240  0  05.0
8/16/19 20.6 032  19  2598  54  760.924  24  240  0  04.4
8/17/19 22.1 034  21  2895  47  701.224  23  240  0  04.9
8/18/19 20.9 1.034  22  2793  49  731.324  23  240  0  04.6
8/19/19 22.3 2.335  21  2799  49  790.724  24  240  0  04.9
8/20/19 21.2 0.535  22  2896  49  761.124  24  240  0  04.7
8/21/19 21.8 035  21  2799  52  791.124  24  240  0  04.8
8/22/19 14.9 9.431  22  2598  64  871.324  24  240  0  03.3
8/23/19 14.6 030  21  25100  63  860.924  24  240  0  03.2
8/24/19 10.6 028  22  2495  69  860.924  24  240  0  02.4
8/25/19 13.6 16.330  22  2599  65  871.124  24  240  0  03.0
8/26/19 12.8 1.531  22  2599  64  871.724  24  240  0  02.9
8/27/19 17.1 0.530  22  2598  57  831.324  24  240  0  03.7
8/28/19 22.8 029  18  24100  38  740.824  23  240  0  04.7
8/29/19 22.9 031  13  22100  34  680.923  23  230  0  04.6
8/30/19 20.8 032  16  2497  39  691.023  23  230  0  04.4
8/31/19 21.0 033  17  2498  38  720.923  22  230  0  04.4
9/1/19 21.6 033  18  2599  38  710.623  22  220  0  04.6
9/2/19 20.0 033  20  2699  48  770.523  22  220  0  04.3
9/3/19 21.7 033  19  26100  46  750.623  23  230  0  04.7
9/4/19 20.6 034  19  27100  45  760.623  23  230  0  04.5
9/5/19 21.0 029  20  2593  41  711.123  23  230  0  04.5
9/6/19 19.6 033  17  2599  50  740.923  23  230  0  04.2
9/7/19 20.3 030  21  2591  39  691.023  23  230  0  04.4
9/8/19 19.2 033  16  2499  36  710.923  22  230  0  04.1
9/9/19 19.7 036  19  2797  39  680.923  22  220  0  04.3
9/10/19 13.6 032  20  2697  49  730.823  22  230  0  03.1
9/11/19 19.1 035  21  2894  36  671.423  23  230  0  04.3
9/12/19 19.7 035  21  2895  40  671.123  23  230  0  04.4
9/13/19 16.2 035  21  2898  40  690.823  23  230  0  03.7
9/14/19 19.6 034  19  2682  37  610.923  23  230  0  04.3
9/15/19 18.2 036  19  2798  35  690.623  23  230  0  04.1
9/16/19 18.6 036  20  2898  32  670.423  23  230  0  04.2
9/17/19 19.0 036  19  2798  32  630.623  23  230  0  04.2
9/18/19 18.2 035  20  2799  38  670.623  23  230  0  04.1

 
Copyright ©2012 Biosystems Engineering & Soil Science · Webmaster · Disclaimer